< Typhoon 202105 2021 Season Typhoon 202107 >
Typhoon 202106 (IN-FA)
General InformationTrack Information on Google MapsDetailed Wind InformationForecast History on Google MapsAccess Analytics MapList of All Images || NewsDisaster Info.WeblogTrackbackTyphoon FrontTwiphoonTyphoon Now!Typhoon ImaginationJMA Disaster Info. XMLResourceGoogle EarthGE AnimationAtom FeedGeoJSON
Detalied Best Track (Time Zone = UTC)
Year Month Day Hour Lat. Long. Pressure (hPa) Wind (kt) Class Image Chart
2021 7 15 18 16.6 135.1 1006 0 2 Image Chart
2021 7 16 00 16.9 135.3 1006 0 2 Image Chart
2021 7 16 06 17.5 135.4 1004 0 2 Image Chart
2021 7 16 12 18.5 135.3 1004 0 2 Image Chart
2021 7 16 18 19.5 135.3 1004 0 2 Image Chart
2021 7 17 00 20.7 134.3 1002 0 2 Image Chart
2021 7 17 06 21.2 133.9 1000 0 2 Image Chart
2021 7 17 12 21.6 133.5 998 35 3 Image Chart
2021 7 17 18 22.1 133.0 998 35 3 Image Chart
2021 7 18 00 22.6 132.5 998 35 3 Image Chart
2021 7 18 06 22.9 132.2 996 40 3 Image Chart
2021 7 18 12 23.4 132.1 996 40 3 Image Chart
2021 7 18 18 23.7 132.1 992 45 3 Image Chart
2021 7 19 00 23.9 131.9 990 50 4 Image Chart
2021 7 19 06 24.0 131.7 990 50 4 Image Chart
2021 7 19 12 24.0 131.6 990 50 4 Image Chart
2021 7 19 18 24.2 131.2 990 50 4 Image Chart
2021 7 20 00 24.5 130.8 985 55 4 Image Chart
2021 7 20 03 24.6 130.3 985 55 4 Image Chart
2021 7 20 06 24.7 129.8 980 60 4 Image Chart
2021 7 20 09 24.7 129.4 980 60 4 Image Chart
2021 7 20 12 24.6 129.0 975 65 5 Image Chart
2021 7 20 15 24.4 128.4 975 65 5 Image Chart
2021 7 20 18 24.2 128.2 970 70 5 Image Chart
2021 7 20 21 24.2 128.0 970 70 5 Image Chart
2021 7 21 00 24.2 127.9 965 75 5 Image Chart
2021 7 21 03 24.2 127.6 965 75 5 Image Chart
2021 7 21 06 24.2 127.2 965 75 5 Image Chart
2021 7 21 09 24.2 126.9 965 75 5 Image Chart
2021 7 21 12 24.0 126.6 955 80 5 Image Chart
2021 7 21 15 23.8 126.4 955 80 5 Image Chart
2021 7 21 18 23.7 126.2 950 85 5 Image Chart
2021 7 21 21 23.5 126.0 950 85 5 Image Chart
2021 7 22 00 23.3 126.0 950 85 5 Image Chart
2021 7 22 03 23.4 125.9 950 85 5 Image Chart
2021 7 22 06 23.5 125.8 950 85 5 Image Chart
2021 7 22 09 23.5 125.8 950 85 5 Image Chart
2021 7 22 12 23.6 125.8 955 80 5 Image Chart
2021 7 22 15 23.7 125.7 955 80 5 Image Chart
2021 7 22 18 23.7 125.5 960 75 5 Image Chart
2021 7 22 21 23.8 125.5 960 75 5 Image Chart
2021 7 23 00 24.3 125.4 960 75 5 Image Chart
2021 7 23 03 24.5 125.3 960 75 5 Image Chart
2021 7 23 06 24.6 125.1 960 75 5 Image Chart
2021 7 23 09 24.7 125.1 960 75 5 Image Chart
2021 7 23 12 24.8 125.1 960 75 5 Image Chart
2021 7 23 15 25.2 125.1 965 70 5 Image Chart
2021 7 23 18 25.5 125.0 965 70 5 Image Chart
2021 7 23 21 26.0 124.9 965 70 5 Image Chart
2021 7 24 00 26.5 124.7 960 75 5 Image Chart
2021 7 24 03 26.8 124.5 960 75 5 Image Chart
2021 7 24 06 27.2 124.4 960 75 5 Image Chart
2021 7 24 09 27.6 124.2 960 75 5 Image Chart
2021 7 24 12 28.1 124.1 960 75 5 Image Chart
2021 7 24 18 28.7 123.7 960 75 5 Image Chart
2021 7 25 00 29.7 123.1 970 65 5 Image Chart
2021 7 25 06 30.0 122.5 970 65 5 Image Chart
2021 7 25 12 30.1 122.1 975 60 4 Image Chart
2021 7 25 18 30.3 121.6 980 55 4 Image Chart
2021 7 26 00 30.6 121.1 985 50 4 Image Chart
2021 7 26 06 30.9 121.0 985 50 4 Image Chart
2021 7 26 12 30.7 120.4 985 45 3 Image Chart
2021 7 26 18 31.0 119.9 985 40 3 Image Chart
2021 7 27 00 31.2 119.5 985 40 3 Image Chart
2021 7 27 06 31.3 119.1 985 35 3 Image Chart
2021 7 27 12 31.6 118.9 985 35 3 Image Chart
2021 7 27 18 32.2 117.9 990 0 2 Image Chart
2021 7 28 00 32.5 117.3 990 0 2 Image Chart
2021 7 28 06 32.7 117.0 990 0 2 Image Chart
2021 7 28 12 33.3 116.9 990 0 2 Image Chart
2021 7 28 18 33.8 116.9 990 0 2 Image Chart
2021 7 29 00 35.1 117.1 990 0 2 Image Chart
2021 7 29 06 35.7 117.2 992 0 2 Image Chart
2021 7 29 12 37.1 118.1 992 0 2 Image Chart
2021 7 29 18 38.1 118.5 992 0 6 Image Chart
2021 7 30 00 38.5 119.0 992 0 6 Image Chart
2021 7 30 06 38.9 119.4 992 0 6 Image Chart
2021 7 30 12 39.1 119.8 994 0 6 Image Chart
2021 7 30 18 39.6 120.4 994 0 6 Image Chart
2021 7 31 00 40.2 121.0 994 0 6 Image Chart
2021 7 31 06 40.9 121.5 994 0 6 Image Chart
Japan Meteorological Agency Best Track Data | Correction Date : 2021-10-28
< Typhoon 202105 2021 Season Typhoon 202107 >

Help